Archival Weather

Norman Y Mineta San Jose Intl

San Jose, California (KSJC)

Report from: Tuesday, February 27, 2024 5:53 AM PST
Current time: Friday, June 14, 2024 6:00 AM PDT

Current weather – Weather history – Daily summaries
Weather forecast

Temperature7.2°C (45.0°F)
Wind chill6.4°C (43.5°F)
Dew point3.9°C (39.0°F)
Winds 3 kts (1.5 m/s, 3.5 mph) West (270°)
Visibility10 mi. (16.1 km)
Clouds Sky clear
Altimeter30.04 in.Hg (1017 mB)
Relative humidity80 %
Density altitude-954 ft. (-291 m)
Sea-level pressure101.7 kPa (1017 mB, 30.04 in.Hg)
Remarks System requires maintenance
Automated weather observing station with precipitation discriminator
Flight conditions Visual Meteorological Conditions
Raw dataKSJC 271353Z 27003KT 10SM CLR 07/04 A3004 RMK AO2 SLP172 T00720039 $
An error has occurred. This application may no longer respond until reloaded. Reload 🗙